This is the latest recevied weather packets stored in our database for station/object SV9TNF-1. If no packets are shown the sender has not sent any weather packets the latest 10 day(s).
| Time | Temp. | Humidity | Pressure | Rain* | Wind** | Luminosity | Snow |
|---|---|---|---|---|---|---|---|
| 1777373179 | 23.89° C | 51% | 1005.1 hPa | 0 mm | 8.49 m/s, 108° | - | - |
| 1777372878 | 24.44° C | 52% | 1005.1 hPa | 0 mm | 0.89 m/s, 128° | - | - |
| 1777372579 | 23.89° C | 52% | 1005.1 hPa | 0 mm | 1.34 m/s, 272° | - | - |
| 1777372278 | 23.33° C | 54% | 1005.1 hPa | 0 mm | 5.81 m/s, 336° | - | - |
| 1777371978 | 24.44° C | 53% | 1005.1 hPa | 0 mm | 0.89 m/s, 173° | - | - |
| 1777371678 | 23.33° C | 55% | 1005.1 hPa | 0 mm | 11.62 m/s, 325° | - | - |
| 1777371379 | 23.89° C | 53% | 1005.1 hPa | 0 mm | 8.05 m/s, 135° | - | - |
| 1777371078 | 23.33° C | 56% | 1005.1 hPa | 0 mm | 4.02 m/s, 119° | - | - |
| 1777370778 | 23.89° C | 54% | 1005.1 hPa | 0 mm | 3.58 m/s, 347° | - | - |
| 1777370478 | 24.44° C | 51% | 1005.1 hPa | 0 mm | 4.92 m/s, 87° | - | - |
| 1777370178 | 24.44° C | 55% | 1005.1 hPa | 0 mm | 1.34 m/s, 124° | - | - |
| 1777369878 | 23.89° C | 60% | 1005.1 hPa | 0 mm | 2.68 m/s, 134° | - | - |
| 1777369577 | 22.78° C | 60% | 1005.4 hPa | 0 mm | 4.02 m/s, 96° | - | - |
| 1777369278 | 22.78° C | 61% | 1005.4 hPa | 0 mm | 12.52 m/s, 322° | - | - |
| 1777368977 | 24.44° C | 60% | 1005.4 hPa | 0 mm | 0.45 m/s, 119° | - | - |
| 1777368677 | 23.89° C | 56% | 1005.4 hPa | 0 mm | 4.92 m/s, 47° | - | - |
| 1777368377 | 23.33° C | 59% | 1005.4 hPa | 0 mm | 8.49 m/s, 45° | - | - |
| 1777368078 | 24.44° C | 55% | 1005.8 hPa | 0 mm | 3.13 m/s, 104° | - | - |
| 1777367777 | 23.89° C | 57% | 1005.8 hPa | 0 mm | 5.81 m/s, 91° | - | - |
| 1777367477 | 24.44° C | 50% | 1005.8 hPa | 0 mm | 2.68 m/s, 132° | - | - |
| 1777367177 | 24.44° C | 52% | 1005.8 hPa | 0 mm | 2.24 m/s, 117° | - | - |
| 1777366877 | 22.78° C | 55% | 1005.8 hPa | 0 mm | 10.28 m/s, 299° | - | - |
| 1777366577 | 23.89° C | 52% | 1005.8 hPa | 0 mm | 0.45 m/s, 133° | - | - |
| 1777366277 | 24.44° C | 55% | 1005.8 hPa | 0 mm | 0.45 m/s, 118° | - | - |
| 1777365976 | 24.44° C | 55% | 1005.8 hPa | 0 mm | 0.45 m/s, 118° | - | - |
* Rain latest hour (hover to see other rain measurements)
** Current wind speed in m/s (hover to see current wind gust speed)